Time;durP1;ratioP1;P1;durP2;ratioP2;P2;SDS_P1;SDS_P2;PMS_P1;PMS_P2;Temp;Humidity;BMP_temperature;BMP_pressure;BME280_temperature;BME280_humidity;BME280_pressure;Samples;Min_cycle;Max_cycle;Signal;HPM_P1;HPM_P2
2022/01/28 00:01:52;;;;;;;5.20;0.95;;;5.80;93.00;;;;;;4983658;28;20147;-80
2022/01/28 00:04:23;;;;;;;4.43;0.70;;;5.80;92.80;;;;;;4984344;28;20042;-79
2022/01/28 00:06:50;;;;;;;6.70;0.85;;;5.80;92.70;;;;;;4982666;28;20065;-80
2022/01/28 00:09:29;;;;;;;6.22;0.70;;;5.80;92.70;;;;;;4982488;28;20042;-80
2022/01/28 00:11:56;;;;;;;3.88;0.95;;;5.90;92.60;;;;;;5014976;28;20038;-80
2022/01/28 00:39:16;;;;;;;4.30;1.05;;;5.80;92.40;;;;;;4998126;28;20136;-79
2022/01/28 00:41:43;;;;;;;3.60;0.70;;;5.80;92.40;;;;;;4982020;28;20042;-79
2022/01/28 00:44:10;;;;;;;3.83;0.50;;;5.70;92.50;;;;;;4998414;28;20038;-79
2022/01/28 00:46:37;;;;;;;5.35;0.65;;;5.70;92.60;;;;;;4982328;28;20493;-80
2022/01/28 00:49:04;;;;;;;3.47;0.40;;;5.60;92.60;;;;;;4981999;28;20046;-80
2022/01/28 00:51:31;;;;;;;3.92;0.50;;;5.60;92.60;;;;;;4998391;28;20398;-79
2022/01/28 00:53:59;;;;;;;6.05;0.50;;;5.60;92.70;;;;;;4982014;28;20393;-80
2022/01/28 00:56:26;;;;;;;4.13;0.47;;;5.50;92.90;;;;;;5014550;28;20075;-80
2022/01/28 00:58:53;;;;;;;3.35;0.80;;;5.50;92.60;;;;;;4998440;28;20417;-79
2022/01/28 01:01:20;;;;;;;3.67;1.00;;;5.50;92.60;;;;;;4998224;28;20049;-79
2022/01/28 01:03:47;;;;;;;4.47;0.40;;;5.50;92.60;;;;;;4998102;28;20049;-79
2022/01/28 01:06:14;;;;;;;5.18;0.60;;;5.50;92.60;;;;;;5015452;28;20085;-79
2022/01/28 01:08:41;;;;;;;5.10;0.57;;;5.50;92.60;;;;;;5018467;28;20042;-79
2022/01/28 01:11:09;;;;;;;3.30;0.40;;;5.50;92.60;;;;;;5018575;28;20047;-80
2022/01/28 01:13:39;;;;;;;7.05;0.70;;;5.50;92.60;;;;;;5001990;28;20045;-80
2022/01/28 01:16:08;;;;;;;5.93;0.70;;;5.50;92.80;;;;;;5002205;28;20095;-80
2022/01/28 01:18:48;;;;;;;5.20;0.60;;;5.50;92.50;;;;;;4987457;28;20049;-82
2022/01/28 01:21:23;;;;;;;5.88;0.60;;;5.50;92.50;;;;;;5003381;28;20493;-82
2022/01/28 01:23:54;;;;;;;6.72;0.75;;;5.40;92.40;;;;;;5018143;28;20153;-83
2022/01/28 01:26:31;;;;;;;3.42;0.82;;;5.40;92.40;;;;;;5001842;28;20041;-83
2022/01/28 01:28:59;;;;;;;3.42;1.10;;;5.40;92.40;;;;;;5017804;28;20068;-83
2022/01/28 01:31:26;;;;;;;5.40;1.10;;;5.40;92.50;;;;;;5002455;28;20042;-82
2022/01/28 01:34:05;;;;;;;4.55;0.30;;;5.40;92.50;;;;;;5001754;28;20493;-82
2022/01/28 01:36:32;;;;;;;2.15;0.32;;;5.40;92.50;;;;;;5003346;28;20049;-82
2022/01/28 01:38:59;;;;;;;7.28;0.47;;;5.40;92.50;;;;;;5001616;28;20065;-81
2022/01/28 01:41:37;;;;;;;4.88;0.68;;;5.40;92.50;;;;;;5017735;28;20477;-81
2022/01/28 01:44:09;;;;;;;5.78;0.95;;;5.40;92.60;;;;;;5017557;28;20061;-80
2022/01/28 01:52:02;;;;;;;2.33;0.47;;;5.30;92.50;;;;;;5003100;28;20065;-80
2022/01/28 01:54:38;;;;;;;3.08;0.47;;;5.30;92.50;;;;;;5034344;28;20041;-80
2022/01/28 01:57:07;;;;;;;4.10;0.50;;;5.30;92.50;;;;;;5016592;28;20386;-80
2022/01/28 01:59:36;;;;;;;4.72;0.50;;;5.40;92.50;;;;;;5016485;28;20421;-80
2022/01/28 02:02:04;;;;;;;3.15;0.52;;;5.40;92.50;;;;;;5000533;28;20056;-80
2022/01/28 02:04:32;;;;;;;2.90;0.40;;;5.30;92.50;;;;;;5000917;28;20083;-80
2022/01/28 02:07:00;;;;;;;4.70;0.60;;;5.30;92.50;;;;;;5000932;28;20099;-81
2022/01/28 02:09:27;;;;;;;10.73;0.52;;;5.20;92.60;;;;;;4985237;28;20060;-80
2022/01/28 02:11:54;;;;;;;2.92;0.50;;;5.20;92.60;;;;;;5017176;28;20406;-80
2022/01/28 02:14:21;;;;;;;2.60;0.35;;;5.20;92.60;;;;;;5034931;28;20068;-80
2022/01/28 02:16:48;;;;;;;5.25;0.50;;;5.20;92.60;;;;;;5016840;28;20073;-80
2022/01/28 02:19:16;;;;;;;2.22;0.63;;;5.20;92.60;;;;;;5016925;28;20385;-80
2022/01/28 02:21:47;;;;;;;6.22;0.50;;;5.20;92.60;;;;;;4984700;28;20053;-80
2022/01/28 02:24:21;;;;;;;2.83;0.38;;;5.20;92.60;;;;;;5000900;28;20048;-80
2022/01/28 02:26:48;;;;;;;4.55;0.50;;;5.20;92.50;;;;;;5001049;28;20116;-80
2022/01/28 02:29:26;;;;;;;5.95;0.60;;;5.30;92.50;;;;;;4997142;28;20470;-80
2022/01/28 02:31:53;;;;;;;3.05;0.45;;;5.30;92.50;;;;;;4997214;28;20453;-81
2022/01/28 02:34:21;;;;;;;6.32;0.82;;;5.30;92.40;;;;;;5013547;28;20489;-81
2022/01/28 02:36:51;;;;;;;6.40;0.88;;;5.30;92.40;;;;;;4981467;28;20050;-80
2022/01/28 02:39:18;;;;;;;5.10;0.70;;;5.30;92.30;;;;;;5013668;28;20049;-80
2022/01/28 02:41:58;;;;;;;3.05;0.43;;;5.40;92.30;;;;;;4997604;28;20073;-80
2022/01/28 02:44:43;;;;;;;3.40;0.55;;;5.30;92.30;;;;;;4998324;28;20544;-80
2022/01/28 02:47:14;;;;;;;8.60;0.57;;;5.30;92.30;;;;;;4996902;28;20112;-81
2022/01/28 02:49:43;;;;;;;5.97;0.50;;;5.40;92.30;;;;;;5013286;28;20046;-80
2022/01/28 02:52:18;;;;;;;6.35;0.68;;;5.30;92.30;;;;;;5013058;28;20085;-80
2022/01/28 02:54:48;;;;;;;4.88;0.70;;;5.40;92.20;;;;;;5012652;28;20054;-80
2022/01/28 02:57:20;;;;;;;5.47;0.50;;;5.40;92.10;;;;;;4981202;28;20041;-81
2022/01/28 02:59:48;;;;;;;5.97;0.60;;;5.40;92.10;;;;;;4997638;28;20160;-80
2022/01/28 03:02:18;;;;;;;5.85;0.50;;;5.40;92.10;;;;;;4997156;28;20054;-80
2022/01/28 03:05:29;;;;;;;8.57;1.02;;;5.40;92.10;;;;;;4996929;28;20144;-81
2022/01/28 03:07:50;;;;;;;11.17;1.77;;;5.50;92.10;;;;;;5001339;28;20041;-80
2022/01/28 03:10:31;;;;;;;3.65;0.50;;;5.40;92.10;;;;;;4996348;28;20308;-82
2022/01/28 03:13:03;;;;;;;7.82;1.17;;;5.40;92.10;;;;;;4997994;28;20104;-80
2022/01/28 03:15:32;;;;;;;9.52;0.77;;;5.40;92.10;;;;;;4980643;28;20054;-81
2022/01/28 03:20:40;;;;;;;5.47;0.60;;;5.50;92.00;;;;;;4997039;28;20049;-80
2022/01/28 03:23:07;;;;;;;6.50;0.98;;;5.50;92.00;;;;;;5011896;28;20056;-80
2022/01/28 03:25:36;;;;;;;10.98;1.25;;;5.50;91.90;;;;;;5011757;28;20405;-80
2022/01/28 03:28:04;;;;;;;6.35;0.90;;;5.50;91.90;;;;;;4995061;28;20502;-80
2022/01/28 03:30:31;;;;;;;3.67;0.60;;;5.50;91.90;;;;;;4997904;28;20041;-80
2022/01/28 03:32:58;;;;;;;2.42;0.40;;;5.50;91.90;;;;;;4998964;28;20493;-80
2022/01/28 03:35:30;;;;;;;6.25;0.70;;;5.50;92.00;;;;;;4984265;28;20084;-80
2022/01/28 03:38:01;;;;;;;7.40;1.02;;;5.50;92.00;;;;;;5015201;28;20068;-81
2022/01/28 03:40:35;;;;;;;6.75;0.60;;;5.50;91.90;;;;;;4983659;28;20048;-81
2022/01/28 03:43:04;;;;;;;3.90;0.65;;;5.50;91.90;;;;;;4998621;28;20046;-80
2022/01/28 03:45:31;;;;;;;9.27;1.13;;;5.50;91.90;;;;;;4998653;28;20053;-80
2022/01/28 03:47:58;;;;;;;6.35;0.93;;;5.50;91.90;;;;;;5015031;28;20049;-80
2022/01/28 03:50:25;;;;;;;3.63;0.20;;;5.40;91.90;;;;;;4999159;28;20045;-80
2022/01/28 03:52:52;;;;;;;3.05;0.40;;;5.40;91.90;;;;;;4999392;28;20042;-81
2022/01/28 03:55:19;;;;;;;3.92;0.40;;;5.40;92.00;;;;;;4983291;28;20144;-81
2022/01/28 03:57:46;;;;;;;7.45;0.40;;;5.40;92.10;;;;;;4999041;28;20050;-81
2022/01/28 04:00:14;;;;;;;3.70;0.30;;;5.40;92.10;;;;;;4999231;28;20421;-81
2022/01/28 04:02:43;;;;;;;5.90;0.43;;;5.40;92.10;;;;;;4983336;28;20057;-81
2022/01/28 04:13:35;;;;;;;1.75;0.30;;;5.20;92.30;;;;;;4981072;28;20136;-81
2022/01/28 04:16:27;;;;;;;1.17;0.13;;;5.10;92.30;;;;;;4982292;28;20041;-80
2022/01/28 04:18:51;;;;;;;1.45;0.20;;;5.10;92.40;;;;;;5014810;28;20049;-81
2022/01/28 04:21:18;;;;;;;2.50;0.40;;;5.10;92.50;;;;;;4998766;28;20049;-80
2022/01/28 04:23:45;;;;;;;3.17;0.28;;;5.10;92.50;;;;;;4998820;28;20975;-81
2022/01/28 04:26:16;;;;;;;5.10;0.50;;;5.10;92.50;;;;;;4983555;28;20107;-80
2022/01/28 04:28:43;;;;;;;1.92;0.22;;;5.10;92.50;;;;;;4998653;28;20077;-81
2022/01/28 04:31:10;;;;;;;2.92;0.40;;;5.10;92.50;;;;;;4998665;28;20497;-80
2022/01/28 04:33:37;;;;;;;3.67;0.40;;;5.20;92.50;;;;;;5015307;28;20481;-81
2022/01/28 04:36:06;;;;;;;2.72;0.40;;;5.20;92.40;;;;;;4998740;28;20128;-81
2022/01/28 04:38:42;;;;;;;2.70;0.40;;;5.20;92.40;;;;;;4999121;28;20069;-81
2022/01/28 04:43:46;;;;;;;3.40;0.40;;;5.20;92.50;;;;;;5003536;28;20148;-81
2022/01/28 04:46:28;;;;;;;1.92;0.50;;;5.20;92.50;;;;;;4987604;28;20100;-81
2022/01/28 04:52:28;;;;;;;7.13;0.65;;;5.10;92.50;;;;;;5019100;28;20103;-81
2022/01/28 04:57:06;;;;;;;1.67;0.20;;;5.00;92.50;;;;;;5005150;28;20049;-80
2022/01/28 05:02:51;;;;;;;4.07;0.30;;;5.00;92.50;;;;;;4989297;28;20066;-81
2022/01/28 05:11:06;;;;;;;3.28;0.35;;;5.00;92.60;;;;;;5035700;28;20049;-81
2022/01/28 05:26:53;;;;;;;1.85;0.20;;;4.90;92.70;;;;;;5003936;28;20049;-80
2022/01/28 05:29:21;;;;;;;2.88;0.38;;;4.90;92.70;;;;;;5003593;28;20500;-81
2022/01/28 05:31:49;;;;;;;5.32;0.30;;;4.80;92.70;;;;;;5002179;28;20400;-81
2022/01/28 05:34:17;;;;;;;1.15;0.30;;;4.80;92.70;;;;;;5001767;28;20073;-81
2022/01/28 05:36:45;;;;;;;4.07;0.40;;;4.80;92.80;;;;;;5017912;28;20111;-81
2022/01/28 05:39:12;;;;;;;1.48;0.20;;;4.80;92.80;;;;;;5017483;28;20490;-81
2022/01/28 05:41:39;;;;;;;1.35;0.30;;;4.80;92.80;;;;;;5000969;28;20091;-81
2022/01/28 05:44:06;;;;;;;2.33;0.20;;;4.80;92.80;;;;;;5000931;28;20049;-81
2022/01/28 05:46:34;;;;;;;2.33;0.20;;;4.80;92.80;;;;;;5001448;28;20049;-81
2022/01/28 05:49:01;;;;;;;2.40;0.30;;;4.80;92.80;;;;;;5001184;28;20045;-82
2022/01/28 05:51:28;;;;;;;3.22;0.85;;;4.70;92.80;;;;;;5001042;28;20045;-81
2022/01/28 05:53:58;;;;;;;1.35;0.20;;;4.70;92.80;;;;;;5001015;28;20052;-81
2022/01/28 05:56:26;;;;;;;2.03;0.20;;;4.70;92.80;;;;;;5001660;28;20050;-82
2022/01/28 05:58:54;;;;;;;0.70;0.10;;;4.70;92.90;;;;;;5001665;28;20041;-81
2022/01/28 06:01:21;;;;;;;0.95;0.13;;;4.70;92.90;;;;;;5017316;28;20053;-81
2022/01/28 06:03:49;;;;;;;1.75;0.10;;;4.60;92.90;;;;;;5017572;28;20060;-81
2022/01/28 06:06:21;;;;;;;3.33;0.30;;;4.60;92.90;;;;;;5017885;28;20096;-81
2022/01/28 06:08:50;;;;;;;0.90;0.10;;;4.60;93.00;;;;;;5017523;28;20489;-81
2022/01/28 06:11:18;;;;;;;0.77;0.20;;;4.60;93.00;;;;;;5017231;28;20041;-81
2022/01/28 06:13:45;;;;;;;0.25;0.10;;;4.60;93.00;;;;;;5017073;28;20041;-82
2022/01/28 06:16:14;;;;;;;1.45;0.17;;;4.60;93.00;;;;;;5017291;28;20041;-81
2022/01/28 06:18:42;;;;;;;1.75;0.17;;;4.70;93.10;;;;;;5016699;28;20103;-81
2022/01/28 06:21:10;;;;;;;1.08;0.00;;;4.70;93.00;;;;;;5000629;28;20111;-81
2022/01/28 06:23:37;;;;;;;0.80;0.10;;;4.80;93.00;;;;;;5000894;28;20145;-82
2022/01/28 06:26:04;;;;;;;0.40;0.00;;;4.80;93.20;;;;;;5000820;28;20057;-81
2022/01/28 06:28:32;;;;;;;1.27;0.10;;;4.90;92.90;;;;;;5016639;28;20397;-81
2022/01/28 06:30:59;;;;;;;0.55;0.10;;;4.90;92.90;;;;;;4984450;28;20049;-82
2022/01/28 06:33:26;;;;;;;0.70;0.10;;;4.90;92.90;;;;;;5000576;28;20057;-81
2022/01/28 06:35:54;;;;;;;3.05;0.40;;;4.90;92.80;;;;;;5034332;28;20120;-81
2022/01/28 06:38:21;;;;;;;2.63;0.10;;;5.00;92.80;;;;;;5000816;28;20049;-81
2022/01/28 06:40:49;;;;;;;0.15;0.00;;;5.00;92.80;;;;;;4984411;28;20493;-81
2022/01/28 06:43:16;;;;;;;0.52;0.10;;;5.00;92.80;;;;;;5033145;28;20056;-81
2022/01/28 06:45:46;;;;;;;1.17;0.10;;;5.10;92.90;;;;;;5016264;28;20099;-81
2022/01/28 06:48:16;;;;;;;1.45;0.00;;;5.10;92.90;;;;;;5000084;28;20052;-81
2022/01/28 06:50:44;;;;;;;1.60;0.30;;;5.10;92.80;;;;;;4984311;28;20045;-84
2022/01/28 06:53:13;;;;;;;0.10;0.00;;;5.10;92.90;;;;;;5015940;28;20072;-82
2022/01/28 06:55:41;;;;;;;0.52;0.10;;;5.20;92.90;;;;;;5000591;28;20124;-82
2022/01/28 06:58:09;;;;;;;0.90;0.10;;;5.10;92.80;;;;;;5000288;28;20077;-80
2022/01/28 07:00:37;;;;;;;0.20;0.00;;;5.10;92.90;;;;;;5016244;28;20049;-81
2022/01/28 07:03:09;;;;;;;0.10;0.00;;;5.00;92.90;;;;;;4984426;28;20323;-81
2022/01/28 07:05:37;;;;;;;0.75;0.00;;;4.90;92.90;;;;;;5015670;28;20102;-80
2022/01/28 07:08:05;;;;;;;1.92;0.10;;;4.90;93.00;;;;;;5016065;28;20448;-80
2022/01/28 07:10:33;;;;;;;0.60;0.10;;;4.90;93.10;;;;;;5033917;28;20033;-80
2022/01/28 07:13:00;;;;;;;1.23;0.20;;;4.80;93.10;;;;;;4999807;28;20060;-80
2022/01/28 07:15:28;;;;;;;1.42;0.40;;;4.90;93.10;;;;;;5000073;28;20404;-80
2022/01/28 07:18:00;;;;;;;1.38;0.20;;;4.80;93.00;;;;;;5015785;28;20132;-80
2022/01/28 07:20:29;;;;;;;1.23;0.20;;;4.80;93.00;;;;;;4999658;28;20042;-84
2022/01/28 07:22:57;;;;;;;0.90;0.30;;;4.90;93.00;;;;;;5000176;28;20092;-83
2022/01/28 07:25:24;;;;;;;1.58;0.20;;;4.90;93.00;;;;;;5016503;28;20053;-84
2022/01/28 07:27:51;;;;;;;1.90;0.63;;;4.90;93.00;;;;;;5016148;28;20042;-84
2022/01/28 07:30:18;;;;;;;2.47;0.20;;;4.90;92.90;;;;;;4999603;28;20077;-80
2022/01/28 07:32:48;;;;;;;3.17;0.30;;;4.90;92.90;;;;;;4999482;28;20243;-81
2022/01/28 07:35:16;;;;;;;1.95;0.30;;;4.90;92.90;;;;;;5016218;28;20527;-81
2022/01/28 07:37:43;;;;;;;2.47;0.30;;;4.80;92.90;;;;;;4983661;28;20065;-80
2022/01/28 07:40:11;;;;;;;1.02;0.10;;;4.90;93.00;;;;;;4999088;28;20053;-83
2022/01/28 07:42:38;;;;;;;2.00;0.20;;;4.90;92.90;;;;;;4983661;28;20107;-83
2022/01/28 07:45:07;;;;;;;2.47;0.30;;;4.90;92.90;;;;;;4999403;28;20045;-83
2022/01/28 07:47:37;;;;;;;1.58;0.40;;;4.90;92.90;;;;;;5015516;28;20042;-82
2022/01/28 07:50:06;;;;;;;3.47;0.60;;;4.90;92.90;;;;;;4999991;28;20037;-83
2022/01/28 07:52:34;;;;;;;6.25;0.65;;;4.90;92.80;;;;;;5015511;28;20401;-80
2022/01/28 07:55:01;;;;;;;3.55;0.50;;;4.90;92.80;;;;;;4999781;28;20045;-84
2022/01/28 07:57:30;;;;;;;1.98;0.30;;;4.80;92.80;;;;;;5016013;28;20045;-83
2022/01/28 07:59:58;;;;;;;4.68;0.47;;;4.80;93.10;;;;;;4999525;28;20140;-83
2022/01/28 08:02:27;;;;;;;1.58;0.20;;;4.70;92.90;;;;;;4999545;28;20133;-83
2022/01/28 08:04:55;;;;;;;2.58;0.20;;;4.80;92.90;;;;;;5000221;28;20096;-85
2022/01/28 08:07:22;;;;;;;2.63;0.50;;;4.80;92.90;;;;;;4999789;28;20042;-82
2022/01/28 08:09:50;;;;;;;2.95;0.30;;;4.90;92.90;;;;;;4999185;28;20060;-81
2022/01/28 08:12:17;;;;;;;4.72;0.70;;;4.90;92.80;;;;;;4999743;28;20049;-84
2022/01/28 08:14:44;;;;;;;4.13;0.52;;;4.90;92.80;;;;;;5015910;28;20056;-83
2022/01/28 08:17:12;;;;;;;1.38;0.30;;;4.80;92.80;;;;;;4999713;28;20048;-84
2022/01/28 08:19:39;;;;;;;2.45;0.30;;;4.80;92.90;;;;;;4999044;28;20050;-82
2022/01/28 08:22:06;;;;;;;2.58;0.30;;;4.80;92.90;;;;;;5015392;28;20057;-80
2022/01/28 08:24:33;;;;;;;2.63;0.30;;;4.80;92.90;;;;;;4999075;28;20099;-79
2022/01/28 08:27:00;;;;;;;1.35;0.25;;;4.80;92.90;;;;;;4998779;28;20057;-80
2022/01/28 08:29:28;;;;;;;3.65;0.65;;;4.70;93.00;;;;;;4967975;28;20070;-80
2022/01/28 08:31:55;;;;;;;2.80;0.45;;;4.70;93.00;;;;;;4959928;28;20494;-81
2022/01/28 08:34:22;;;;;;;2.55;0.40;;;4.60;93.00;;;;;;4943623;28;20101;-80
2022/01/28 08:36:49;;;;;;;3.58;0.65;;;4.60;93.00;;;;;;4959856;28;20387;-80
2022/01/28 08:39:17;;;;;;;2.70;0.60;;;4.60;93.00;;;;;;4960110;28;20113;-82
2022/01/28 08:41:44;;;;;;;3.85;0.50;;;4.60;93.30;;;;;;4960859;28;20055;-84
2022/01/28 08:44:15;;;;;;;4.40;0.70;;;4.50;93.10;;;;;;4946056;28;20050;-84
2022/01/28 08:46:43;;;;;;;1.77;0.40;;;4.50;93.10;;;;;;4960622;28;20047;-83
2022/01/28 08:49:10;;;;;;;2.47;0.25;;;4.50;93.10;;;;;;4960176;28;20161;-83
2022/01/28 08:51:38;;;;;;;3.05;0.55;;;4.50;93.10;;;;;;4960464;28;20101;-85
2022/01/28 08:54:05;;;;;;;1.17;0.32;;;4.50;93.20;;;;;;4960810;28;20479;-83
2022/01/28 08:56:32;;;;;;;2.45;0.43;;;4.50;93.20;;;;;;4960509;28;20065;-84
2022/01/28 08:59:09;;;;;;;2.40;0.98;;;4.50;93.20;;;;;;4960101;28;20101;-83
2022/01/28 09:01:36;;;;;;;1.55;0.30;;;4.50;93.20;;;;;;4976108;28;20050;-83
2022/01/28 09:04:04;;;;;;;2.75;0.50;;;4.60;93.20;;;;;;4960105;28;20487;-82
2022/01/28 09:06:31;;;;;;;2.55;0.35;;;4.60;93.20;;;;;;4960286;28;20097;-82
2022/01/28 09:09:00;;;;;;;1.65;0.35;;;4.60;93.20;;;;;;4944266;28;20039;-84
2022/01/28 09:13:55;;;;;;;1.55;0.30;;;4.70;93.20;;;;;;4960081;28;20038;-83
2022/01/28 09:16:22;;;;;;;3.33;0.55;;;4.70;93.10;;;;;;4960541;28;20050;-84
2022/01/28 09:18:50;;;;;;;0.55;0.25;;;4.80;93.20;;;;;;4960513;28;20045;-84
2022/01/28 09:21:19;;;;;;;3.33;0.40;;;4.80;93.10;;;;;;4960227;28;20418;-83
2022/01/28 09:23:46;;;;;;;1.10;0.30;;;4.80;93.10;;;;;;4975691;28;20042;-82
2022/01/28 09:26:17;;;;;;;4.82;0.50;;;4.90;93.20;;;;;;4976228;28;20426;-83
2022/01/28 09:29:45;;;;;;;4.47;0.98;;;4.90;93.10;;;;;;4974513;28;20128;-83
2022/01/28 09:37:06;;;;;;;5.70;1.25;;;5.00;93.00;;;;;;5036348;28;20095;-82
2022/01/28 09:39:44;;;;;;;3.92;0.50;;;5.00;93.00;;;;;;5001831;28;20053;-79
2022/01/28 09:42:15;;;;;;;3.38;0.40;;;5.10;93.00;;;;;;5017865;28;20497;-79
2022/01/28 09:44:43;;;;;;;3.75;0.40;;;5.10;93.00;;;;;;5035529;28;20045;-79
2022/01/28 09:47:11;;;;;;;3.72;0.52;;;5.20;93.00;;;;;;5001452;28;20049;-80
2022/01/28 09:49:39;;;;;;;4.47;0.50;;;5.30;93.00;;;;;;5017503;28;20414;-80
2022/01/28 09:52:08;;;;;;;2.00;0.40;;;5.30;93.00;;;;;;5001734;28;20084;-84
2022/01/28 09:54:36;;;;;;;2.55;0.40;;;5.30;93.00;;;;;;5018893;28;20398;-86
2022/01/28 09:57:06;;;;;;;2.17;0.35;;;5.40;93.00;;;;;;5001703;28;20041;-83
2022/01/28 09:59:33;;;;;;;1.55;0.40;;;5.40;93.00;;;;;;5018388;28;20072;-82
2022/01/28 10:02:00;;;;;;;1.38;0.30;;;5.40;93.00;;;;;;5001439;28;20484;-82
2022/01/28 10:04:30;;;;;;;1.90;0.40;;;5.40;93.00;;;;;;5001259;28;20058;-80
2022/01/28 10:08:51;;;;;;;1.58;0.40;;;5.50;93.00;;;;;;5010873;28;20046;-82
2022/01/28 10:11:19;;;;;;;1.95;0.30;;;5.70;92.90;;;;;;5013587;28;20542;-80
2022/01/28 10:13:53;;;;;;;3.90;0.50;;;5.80;92.80;;;;;;5001157;28;20163;-82
2022/01/28 10:16:26;;;;;;;1.73;0.20;;;5.90;92.70;;;;;;5001189;28;20053;-81
2022/01/28 10:18:58;;;;;;;3.80;1.05;;;5.90;92.70;;;;;;4985409;28;20051;-81
2022/01/28 10:21:33;;;;;;;3.13;0.60;;;5.90;92.70;;;;;;5017019;28;20045;-80
2022/01/28 10:24:02;;;;;;;3.05;0.32;;;6.00;92.60;;;;;;5000776;28;20292;-80
2022/01/28 10:26:41;;;;;;;2.65;0.20;;;6.10;92.60;;;;;;5016967;28;20404;-80
2022/01/28 10:29:12;;;;;;;3.03;0.35;;;6.10;92.60;;;;;;5016555;28;20049;-80
2022/01/28 10:32:11;;;;;;;2.58;0.30;;;6.10;92.60;;;;;;5000595;28;20052;-80
2022/01/28 10:34:49;;;;;;;1.88;0.30;;;6.20;92.50;;;;;;5016841;28;20038;-80
2022/01/28 10:37:21;;;;;;;1.25;0.30;;;6.20;92.40;;;;;;5001067;28;20045;-80
2022/01/28 10:40:17;;;;;;;2.50;0.60;;;6.20;92.40;;;;;;5016524;28;20045;-80
2022/01/28 10:42:53;;;;;;;5.43;1.02;;;6.30;92.40;;;;;;5001961;28;20056;-80
2022/01/28 10:45:24;;;;;;;8.23;0.80;;;6.30;92.20;;;;;;5001252;28;20485;-80
2022/01/28 10:47:57;;;;;;;3.65;0.90;;;6.50;92.10;;;;;;4984477;28;20178;-80
2022/01/28 10:50:26;;;;;;;4.18;0.52;;;6.50;92.00;;;;;;5000258;28;20545;-80
2022/01/28 10:53:14;;;;;;;8.98;0.80;;;6.60;92.00;;;;;;5000036;28;20038;-80
2022/01/28 10:55:58;;;;;;;9.55;1.00;;;6.70;91.80;;;;;;5016363;28;20042;-81
2022/01/28 10:58:27;;;;;;;6.10;0.88;;;6.80;91.70;;;;;;5000908;28;20136;-80
2022/01/28 11:00:57;;;;;;;6.75;0.70;;;6.90;91.60;;;;;;4984303;28;20088;-81
2022/01/28 11:03:27;;;;;;;4.93;0.60;;;7.00;91.50;;;;;;5015864;28;20132;-81
2022/01/28 11:05:58;;;;;;;6.40;0.65;;;7.10;91.30;;;;;;5000162;28;20092;-80
2022/01/28 11:08:31;;;;;;;2.60;0.32;;;7.20;91.30;;;;;;5016110;28;20095;-80
2022/01/28 11:11:00;;;;;;;2.03;0.30;;;7.20;91.30;;;;;;5015858;28;20056;-80
2022/01/28 11:13:28;;;;;;;1.13;0.30;;;7.30;91.40;;;;;;4999731;28;20045;-80
2022/01/28 11:15:55;;;;;;;7.57;1.30;;;7.30;91.40;;;;;;5015808;28;20535;-80
2022/01/28 11:18:23;;;;;;;1.77;0.30;;;7.40;91.20;;;;;;4983610;28;20069;-80
2022/01/28 11:21:03;;;;;;;5.57;0.60;;;7.50;91.10;;;;;;4983962;28;20056;-79
2022/01/28 11:23:53;;;;;;;8.25;0.65;;;7.60;90.90;;;;;;5015451;28;20056;-79
2022/01/28 11:26:39;;;;;;;3.47;0.60;;;7.70;90.70;;;;;;4998868;28;20184;-79
2022/01/28 11:29:12;;;;;;;3.92;0.50;;;7.80;90.50;;;;;;5014508;28;20073;-80
2022/01/28 11:31:57;;;;;;;3.92;0.40;;;7.80;90.30;;;;;;4998515;28;20045;-78
2022/01/28 11:34:30;;;;;;;3.28;0.40;;;7.70;90.10;;;;;;5015740;28;20048;-79
2022/01/28 11:37:17;;;;;;;9.73;1.17;;;7.70;90.20;;;;;;4999056;28;20045;-79
2022/01/28 11:39:47;;;;;;;6.85;1.08;;;7.70;89.90;;;;;;5002684;28;20568;-79
2022/01/28 11:42:26;;;;;;;9.13;0.80;;;7.80;88.90;;;;;;4999318;28;20148;-80
2022/01/28 11:44:55;;;;;;;2.40;0.55;;;7.80;88.90;;;;;;5015513;28;20057;-79
2022/01/28 11:47:28;;;;;;;5.47;0.70;;;7.90;89.10;;;;;;5016235;28;20041;-82
2022/01/28 11:50:11;;;;;;;3.80;0.60;;;7.90;88.80;;;;;;5014961;28;20042;-80
2022/01/28 11:52:44;;;;;;;5.50;0.65;;;7.90;88.70;;;;;;5014446;28;20050;-80
2022/01/28 11:55:14;;;;;;;5.07;0.50;;;8.00;88.70;;;;;;5014606;28;20056;-79
2022/01/28 11:57:54;;;;;;;5.20;0.40;;;8.10;88.90;;;;;;4998830;28;20041;-79
2022/01/28 12:00:29;;;;;;;6.97;0.85;;;8.10;88.30;;;;;;4998607;28;20451;-79
2022/01/28 12:02:56;;;;;;;11.20;0.80;;;8.30;88.00;;;;;;5015562;28;20463;-79
2022/01/28 12:05:29;;;;;;;5.70;0.60;;;8.40;86.80;;;;;;4999177;28;20069;-78
2022/01/28 12:08:04;;;;;;;4.15;0.75;;;8.50;86.70;;;;;;5014933;28;20489;-77
2022/01/28 12:10:35;;;;;;;4.72;0.55;;;8.60;86.50;;;;;;4998815;28;20042;-80
2022/01/28 12:13:06;;;;;;;7.55;1.10;;;8.60;85.90;;;;;;5015164;28;20049;-81
2022/01/28 12:16:00;;;;;;;5.30;0.85;;;8.60;85.70;;;;;;4999385;28;20076;-81
2022/01/28 12:18:52;;;;;;;3.92;0.63;;;8.70;85.90;;;;;;4998799;28;20045;-81
2022/01/28 12:21:22;;;;;;;5.63;0.52;;;8.60;85.50;;;;;;5015069;28;20052;-81
2022/01/28 12:23:55;;;;;;;2.97;0.60;;;8.50;85.80;;;;;;4998706;28;20087;-81
2022/01/28 12:26:22;;;;;;;3.05;0.25;;;8.50;86.20;;;;;;5015095;28;20049;-81
2022/01/28 12:28:54;;;;;;;3.78;0.60;;;8.40;86.30;;;;;;5015313;28;20499;-80
2022/01/28 12:31:31;;;;;;;2.33;0.65;;;8.40;86.50;;;;;;4998041;28;20140;-79
2022/01/28 12:34:02;;;;;;;6.65;1.10;;;8.40;86.80;;;;;;5014101;28;20049;-79
2022/01/28 12:36:38;;;;;;;1.83;0.40;;;8.50;86.70;;;;;;5014373;28;20053;-82
2022/01/28 12:41:54;;;;;;;1.90;0.30;;;8.50;87.00;;;;;;5014723;28;19921;-81
2022/01/28 12:44:22;;;;;;;3.42;0.38;;;8.60;87.00;;;;;;5015304;28;20129;-83
2022/01/28 12:46:58;;;;;;;2.97;0.50;;;8.50;86.90;;;;;;4998717;28;20082;-81
2022/01/28 12:49:30;;;;;;;4.93;0.30;;;8.50;86.70;;;;;;4998461;28;20052;-81
2022/01/28 12:52:14;;;;;;;2.92;0.50;;;8.40;87.10;;;;;;4998415;28;20099;-81
2022/01/28 12:54:45;;;;;;;3.60;0.32;;;8.40;86.20;;;;;;4982681;28;20398;-80
2022/01/28 12:57:20;;;;;;;3.92;0.77;;;8.40;86.50;;;;;;4998342;28;20107;-80
2022/01/28 12:59:49;;;;;;;3.22;0.30;;;8.40;86.30;;;;;;4997831;28;20045;-80
2022/01/28 13:02:17;;;;;;;3.72;0.77;;;8.50;86.00;;;;;;4999068;28;20501;-79
2022/01/28 13:04:52;;;;;;;3.95;0.40;;;8.50;86.00;;;;;;5018399;28;20046;-80
2022/01/28 13:09:54;;;;;;;2.72;0.30;;;8.70;86.00;;;;;;5002987;28;20041;-81
2022/01/28 13:12:33;;;;;;;2.72;0.55;;;8.80;85.90;;;;;;4993633;28;20033;-81
2022/01/28 13:15:10;;;;;;;6.00;0.50;;;8.90;85.50;;;;;;5002297;28;20052;-80
2022/01/28 13:17:39;;;;;;;4.63;0.50;;;8.90;85.40;;;;;;5010751;28;20446;-81
2022/01/28 13:20:09;;;;;;;3.42;0.50;;;8.80;85.40;;;;;;5018196;28;20516;-80
2022/01/28 13:22:38;;;;;;;4.93;0.70;;;8.80;85.00;;;;;;5001929;28;20050;-81
2022/01/28 13:25:31;;;;;;;4.85;0.68;;;8.70;84.80;;;;;;5018113;28;20080;-82
2022/01/28 13:28:19;;;;;;;4.45;0.75;;;8.70;84.90;;;;;;5012052;28;20397;-80
2022/01/28 13:30:55;;;;;;;2.10;0.60;;;8.70;85.00;;;;;;5018704;28;20052;-81
2022/01/28 13:33:28;;;;;;;4.20;0.90;;;8.80;85.30;;;;;;5018040;28;20107;-86
2022/01/28 13:35:58;;;;;;;5.93;0.63;;;8.90;84.70;;;;;;5018530;28;20053;-82
2022/01/28 13:38:34;;;;;;;4.20;0.55;;;8.90;84.50;;;;;;5002097;28;20069;-83
2022/01/28 13:41:19;;;;;;;3.55;0.50;;;9.10;84.10;;;;;;5018407;28;20493;-81
2022/01/28 13:43:46;;;;;;;5.10;0.57;;;9.10;83.70;;;;;;5018341;28;20053;-85
2022/01/28 13:46:14;;;;;;;5.10;0.50;;;9.00;83.40;;;;;;5002242;28;20451;-82
2022/01/28 13:48:45;;;;;;;4.55;0.50;;;9.10;82.80;;;;;;5017808;28;20129;-84
2022/01/28 13:51:20;;;;;;;5.10;1.35;;;9.00;82.90;;;;;;5017962;28;20038;-85
2022/01/28 13:56:43;;;;;;;4.50;0.88;;;8.90;82.30;;;;;;5017311;28;20099;-85
2022/01/28 13:59:13;;;;;;;4.10;0.40;;;8.90;82.80;;;;;;5018023;28;20481;-80
2022/01/28 14:01:52;;;;;;;4.60;1.05;;;8.80;83.00;;;;;;5017495;28;20132;-78
2022/01/28 14:04:20;;;;;;;3.83;0.60;;;8.70;82.90;;;;;;5017815;28;20065;-80
2022/01/28 14:06:47;;;;;;;5.15;0.47;;;8.60;82.70;;;;;;5017694;28;20091;-82
2022/01/28 14:09:19;;;;;;;3.72;0.75;;;8.50;82.70;;;;;;5001589;28;20056;-79
2022/01/28 14:11:52;;;;;;;7.10;0.77;;;8.50;83.00;;;;;;5001110;28;20073;-79
2022/01/28 14:14:43;;;;;;;4.30;0.70;;;8.40;83.10;;;;;;5016841;28;20042;-80
2022/01/28 14:17:11;;;;;;;3.85;1.13;;;8.40;83.30;;;;;;5016561;28;20041;-80
2022/01/28 14:19:40;;;;;;;5.90;1.10;;;8.30;83.30;;;;;;5001202;28;20440;-76
2022/01/28 14:22:27;;;;;;;5.55;0.68;;;8.30;83.40;;;;;;5003616;28;20103;-78
2022/01/28 14:24:54;;;;;;;4.75;0.75;;;8.30;83.60;;;;;;5001123;28;20044;-78
2022/01/28 14:27:47;;;;;;;6.82;1.05;;;8.30;83.80;;;;;;5017156;28;20053;-79
2022/01/28 14:30:21;;;;;;;4.25;1.27;;;8.30;83.80;;;;;;5000105;28;20049;-78
2022/01/28 14:32:48;;;;;;;4.95;0.70;;;8.30;83.70;;;;;;4997380;28;20521;-80
2022/01/28 14:35:17;;;;;;;5.47;1.13;;;8.40;83.50;;;;;;5013346;28;20070;-85
2022/01/28 14:37:45;;;;;;;4.10;0.95;;;8.50;84.00;;;;;;4997786;28;20052;-80
2022/01/28 14:40:13;;;;;;;6.90;0.68;;;8.50;83.30;;;;;;4997309;28;20408;-81
2022/01/28 14:42:41;;;;;;;3.55;0.80;;;8.60;83.20;;;;;;5013490;28;20054;-80
2022/01/28 14:45:10;;;;;;;5.50;0.88;;;8.60;83.10;;;;;;5013120;28;20061;-81
2022/01/28 14:47:37;;;;;;;4.43;0.77;;;8.60;83.00;;;;;;5012988;28;20153;-81